createdAt,value
2019-03-30T00:00:50.991Z,50.20
2019-03-30T00:03:20.158Z,50.20
2019-03-30T00:05:49.229Z,50.40
2019-03-30T00:08:18.558Z,50.30
2019-03-30T00:10:47.651Z,50.30
2019-03-30T00:13:16.978Z,50.20
2019-03-30T00:15:46.053Z,50.10
2019-03-30T00:18:15.389Z,50.00
2019-03-30T00:20:44.989Z,49.90
2019-03-30T00:23:14.077Z,50.00
2019-03-30T00:25:43.162Z,50.10
2019-03-30T00:28:12.221Z,50.10
2019-03-30T00:30:41.310Z,50.20
2019-03-30T00:33:10.389Z,50.10
2019-03-30T00:35:39.480Z,50.00
2019-03-30T00:38:08.821Z,50.60
2019-03-30T00:40:38.146Z,50.10
2019-03-30T00:43:07.958Z,50.10
2019-03-30T00:45:37.036Z,50.10
2019-03-30T00:48:06.190Z,50.20
2019-03-30T00:50:35.498Z,50.30
2019-03-30T00:53:04.584Z,50.30
2019-03-30T00:55:33.654Z,50.30
2019-03-30T00:58:02.746Z,50.30
2019-03-30T01:00:31.814Z,50.40
2019-03-30T01:03:00.881Z,50.30
2019-03-30T01:05:29.982Z,50.20
2019-03-30T01:07:59.049Z,50.30
2019-03-30T01:10:28.378Z,50.30
2019-03-30T01:12:57.674Z,50.40
2019-03-30T01:15:26.794Z,50.50
2019-03-30T01:17:55.880Z,50.50
2019-03-30T01:20:24.980Z,50.60
2019-03-30T01:22:54.289Z,50.70
2019-03-30T01:25:23.358Z,50.70
2019-03-30T01:27:52.466Z,50.70
2019-03-30T01:30:23.353Z,50.60
2019-03-30T01:32:52.634Z,50.50
2019-03-30T01:35:21.824Z,50.50
2019-03-30T01:37:51.099Z,50.50
2019-03-30T01:40:20.179Z,50.60
2019-03-30T01:42:49.277Z,50.40
2019-03-30T01:45:18.371Z,50.20
2019-03-30T01:47:47.465Z,50.30
2019-03-30T01:50:18.106Z,50.30
2019-03-30T01:52:47.344Z,50.40
2019-03-30T01:55:16.431Z,50.40
2019-03-30T01:57:45.506Z,50.30
2019-03-30T02:00:14.862Z,50.30
2019-03-30T02:02:44.447Z,50.40
2019-03-30T02:05:13.521Z,50.50
2019-03-30T02:07:42.601Z,50.40
2019-03-30T02:10:11.677Z,50.40
2019-03-30T02:12:40.781Z,50.50
2019-03-30T02:15:09.865Z,50.60
2019-03-30T02:17:39.193Z,50.50
2019-03-30T02:20:08.630Z,50.60
2019-03-30T02:22:37.718Z,50.70
2019-03-30T02:25:07.354Z,50.80
2019-03-30T02:27:36.669Z,50.70
2019-03-30T02:30:06.070Z,50.80
2019-03-30T02:32:35.383Z,50.70
2019-03-30T02:35:04.823Z,50.50
2019-03-30T02:37:33.910Z,50.60
2019-03-30T02:40:02.997Z,50.50
2019-03-30T02:42:32.094Z,50.50
2019-03-30T02:45:01.177Z,50.50
2019-03-30T02:47:30.274Z,50.40
2019-03-30T02:49:59.371Z,50.40
2019-03-30T02:52:28.532Z,50.40
2019-03-30T02:54:57.622Z,50.50
2019-03-30T02:57:26.811Z,50.50
2019-03-30T02:59:56.578Z,50.50
2019-03-30T03:02:25.964Z,50.50
2019-03-30T03:04:55.310Z,50.40
2019-03-30T03:07:24.382Z,50.30
2019-03-30T03:09:53.486Z,50.20
2019-03-30T03:12:22.987Z,50.10
2019-03-30T03:14:52.074Z,50.10
2019-03-30T03:17:21.338Z,50.10
2019-03-30T03:19:50.421Z,50.30
2019-03-30T03:22:19.803Z,50.40
2019-03-30T03:24:48.897Z,50.40
2019-03-30T03:27:18.230Z,50.40
2019-03-30T03:29:47.346Z,50.50
2019-03-30T03:32:16.482Z,50.60
2019-03-30T03:34:46.275Z,50.70
2019-03-30T03:37:15.448Z,50.70
2019-03-30T03:39:44.866Z,50.70
2019-03-30T03:42:13.959Z,50.70
2019-03-30T03:44:43.057Z,50.60
2019-03-30T03:47:12.210Z,50.50
2019-03-30T03:49:41.287Z,50.60
2019-03-30T03:52:10.394Z,50.60
2019-03-30T03:54:39.559Z,50.60
2019-03-30T03:57:08.900Z,50.50
2019-03-30T03:59:38.303Z,50.60
2019-03-30T04:02:07.654Z,50.60
2019-03-30T04:04:38.288Z,50.70
2019-03-30T04:07:07.546Z,50.60
2019-03-30T04:09:36.908Z,50.60
2019-03-30T04:12:08.114Z,50.50
2019-03-30T04:14:37.987Z,50.60
2019-03-30T04:17:07.063Z,50.50
2019-03-30T04:19:36.176Z,50.50
2019-03-30T04:22:05.528Z,50.50
2019-03-30T04:24:34.676Z,50.60
2019-03-30T04:27:03.837Z,50.70
2019-03-30T04:29:32.993Z,50.70
2019-03-30T04:32:02.156Z,50.70
2019-03-30T04:34:31.310Z,50.70
2019-03-30T04:37:00.425Z,50.70
2019-03-30T04:39:29.586Z,50.70
2019-03-30T04:41:58.689Z,50.80
2019-03-30T04:44:28.003Z,50.80
2019-03-30T04:46:57.089Z,50.80
2019-03-30T04:49:26.183Z,50.90
2019-03-30T04:51:57.663Z,50.90
2019-03-30T04:54:26.161Z,50.90
2019-03-30T04:56:55.241Z,50.90
2019-03-30T04:59:24.609Z,50.70
2019-03-30T05:01:53.745Z,50.60
2019-03-30T05:04:22.961Z,50.60
2019-03-30T05:06:52.040Z,50.70
2019-03-30T05:09:21.117Z,50.60
2019-03-30T05:11:50.446Z,50.70
2019-03-30T05:14:19.531Z,50.60
2019-03-30T05:16:48.701Z,50.60
2019-03-30T05:19:17.778Z,50.60
2019-03-30T05:21:46.889Z,50.70
2019-03-30T05:24:15.974Z,50.70
2019-03-30T05:26:45.075Z,50.70
2019-03-30T05:29:14.161Z,50.60
2019-03-30T05:31:43.244Z,50.50
2019-03-30T05:34:12.330Z,50.50
2019-03-30T05:36:41.642Z,50.50
2019-03-30T05:39:10.746Z,50.50
2019-03-30T05:41:39.826Z,50.60
2019-03-30T05:44:09.179Z,50.60
2019-03-30T05:46:38.254Z,50.60
2019-03-30T05:49:07.370Z,50.60
2019-03-30T05:51:36.938Z,50.60
2019-03-30T05:54:06.015Z,50.70
2019-03-30T05:56:35.369Z,50.70
2019-03-30T05:59:04.465Z,50.50
2019-03-30T06:01:33.562Z,50.40
2019-03-30T06:04:02.635Z,50.40
2019-03-30T06:06:31.728Z,50.40
2019-03-30T06:09:00.814Z,50.40
2019-03-30T06:11:29.909Z,50.40
2019-03-30T06:13:59.230Z,50.40
2019-03-30T06:16:28.338Z,50.30
2019-03-30T06:18:57.409Z,50.20
2019-03-30T06:21:26.499Z,50.20
2019-03-30T06:23:55.587Z,50.10
2019-03-30T06:26:24.666Z,50.10
2019-03-30T06:28:53.754Z,50.10
2019-03-30T06:31:22.834Z,50.10
2019-03-30T06:33:52.182Z,50.10
2019-03-30T06:36:21.257Z,50.20
2019-03-30T06:38:50.364Z,50.30
2019-03-30T06:41:19.451Z,50.20
2019-03-30T06:43:48.746Z,50.30
2019-03-30T06:46:17.843Z,50.30
2019-03-30T06:48:47.169Z,50.30
2019-03-30T06:51:16.265Z,50.30
2019-03-30T06:53:45.346Z,50.40
2019-03-30T06:56:14.531Z,50.50
2019-03-30T06:58:43.601Z,50.60
2019-03-30T07:01:12.681Z,50.60
2019-03-30T07:03:41.909Z,50.70
2019-03-30T07:06:11.370Z,50.70
2019-03-30T07:08:40.466Z,50.60
2019-03-30T07:11:20.544Z,50.60
2019-03-30T07:13:40.564Z,50.60
2019-03-30T07:16:09.674Z,50.50
2019-03-30T07:18:38.838Z,50.50
2019-03-30T07:21:07.954Z,50.60
2019-03-30T07:23:37.134Z,50.70
2019-03-30T07:26:06.248Z,50.70
2019-03-30T07:28:35.355Z,50.70
2019-03-30T07:31:04.600Z,50.60
2019-03-30T07:33:33.769Z,50.50
2019-03-30T07:36:03.099Z,50.40
2019-03-30T07:38:32.204Z,50.40
2019-03-30T07:41:01.604Z,50.40
2019-03-30T07:43:31.264Z,50.30
2019-03-30T07:46:00.353Z,50.30
2019-03-30T07:48:29.434Z,50.20
2019-03-30T07:50:58.565Z,50.20
2019-03-30T07:53:27.637Z,50.20
2019-03-30T07:56:07.852Z,50.30
2019-03-30T07:58:30.173Z,50.40
2019-03-30T08:00:59.575Z,50.40
2019-03-30T08:03:28.896Z,50.50
2019-03-30T08:05:57.993Z,50.40
2019-03-30T08:08:27.094Z,50.30
2019-03-30T08:10:56.169Z,50.30
2019-03-30T08:13:25.282Z,50.40
2019-03-30T08:15:54.386Z,50.50
2019-03-30T08:18:23.494Z,50.50
2019-03-30T08:20:52.592Z,50.50
2019-03-30T08:23:21.668Z,50.40
2019-03-30T08:25:50.762Z,50.30
2019-03-30T08:28:19.841Z,50.10
2019-03-30T08:30:48.931Z,50.10
2019-03-30T08:33:18.026Z,50.20
2019-03-30T08:35:47.177Z,50.10
2019-03-30T08:38:16.270Z,50.10
2019-03-30T08:40:45.601Z,50.00
2019-03-30T08:43:14.685Z,49.90
2019-03-30T08:45:43.757Z,49.80
2019-03-30T08:48:12.874Z,50.00
2019-03-30T08:50:41.946Z,50.10
2019-03-30T08:53:11.273Z,50.10
2019-03-30T08:55:40.369Z,50.10
2019-03-30T08:58:09.695Z,50.10
2019-03-30T09:00:40.095Z,50.00
2019-03-30T09:03:09.221Z,50.00
2019-03-30T09:05:38.327Z,50.10
2019-03-30T09:08:07.427Z,50.10
2019-03-30T09:10:36.588Z,50.20
2019-03-30T09:13:05.899Z,50.10
2019-03-30T09:15:35.015Z,50.10
2019-03-30T09:18:04.442Z,49.90
2019-03-30T09:20:33.546Z,50.00
2019-03-30T09:23:02.869Z,50.00
2019-03-30T09:25:31.965Z,49.90
2019-03-30T09:28:01.278Z,49.70
2019-03-30T09:30:30.361Z,49.50
2019-03-30T09:32:59.706Z,50.00
2019-03-30T09:35:28.790Z,49.20
2019-03-30T09:37:57.882Z,49.20
2019-03-30T09:40:26.963Z,49.30
2019-03-30T09:42:56.328Z,49.40
2019-03-30T09:45:25.766Z,49.40
2019-03-30T09:47:55.332Z,49.30
2019-03-30T09:50:24.419Z,49.20
2019-03-30T09:52:53.508Z,49.20
2019-03-30T09:55:22.954Z,49.20
2019-03-30T09:57:52.302Z,49.20
2019-03-30T10:00:22.093Z,49.10
2019-03-30T10:02:51.163Z,49.10
2019-03-30T10:05:20.254Z,49.10
2019-03-30T10:07:49.338Z,49.10
2019-03-30T10:10:18.422Z,49.00
2019-03-30T10:12:47.770Z,49.00
2019-03-30T10:15:16.946Z,49.00
2019-03-30T10:17:46.066Z,49.00
2019-03-30T10:20:15.154Z,49.00
2019-03-30T10:22:44.266Z,49.00
2019-03-30T10:25:13.365Z,49.00
2019-03-30T10:27:42.536Z,49.00
2019-03-30T10:30:12.124Z,49.00
2019-03-30T10:32:41.214Z,48.90
2019-03-30T10:35:10.381Z,49.00
2019-03-30T10:37:39.698Z,49.00
2019-03-30T10:40:08.952Z,49.10
2019-03-30T10:42:38.110Z,49.10
2019-03-30T10:45:07.471Z,49.20
2019-03-30T10:47:36.646Z,49.20
2019-03-30T10:50:06.703Z,49.30
2019-03-30T10:52:35.891Z,49.30
2019-03-30T10:55:05.242Z,49.30
2019-03-30T10:57:34.350Z,49.30
2019-03-30T11:00:04.449Z,49.30
2019-03-30T11:02:33.817Z,49.30
2019-03-30T11:05:03.158Z,49.30
2019-03-30T11:07:32.513Z,49.40
2019-03-30T11:10:01.607Z,49.30
2019-03-30T11:12:30.786Z,49.30
2019-03-30T11:14:59.868Z,49.30
2019-03-30T11:17:28.978Z,49.20
2019-03-30T11:19:58.495Z,49.00
2019-03-30T11:22:27.654Z,49.00
2019-03-30T11:25:07.349Z,49.10
2019-03-30T11:27:27.574Z,48.90
2019-03-30T11:29:56.746Z,48.90
2019-03-30T11:32:25.819Z,48.90
2019-03-30T11:34:54.922Z,48.90
2019-03-30T11:37:23.994Z,48.90
2019-03-30T11:39:53.122Z,48.90
2019-03-30T11:42:22.462Z,49.00
2019-03-30T11:44:52.063Z,49.10
2019-03-30T11:47:21.153Z,49.10
2019-03-30T11:49:50.496Z,49.00
2019-03-30T11:52:19.585Z,49.00
2019-03-30T11:54:48.675Z,48.90
2019-03-30T11:57:18.093Z,49.00
2019-03-30T11:59:47.202Z,49.00
2019-03-30T12:02:27.283Z,48.90
2019-03-30T12:04:47.474Z,48.90
2019-03-30T12:07:16.582Z,48.90
2019-03-30T12:09:45.914Z,48.90
2019-03-30T12:12:15.246Z,48.80
2019-03-30T12:14:44.348Z,48.80
2019-03-30T12:17:13.436Z,48.80
2019-03-30T12:19:42.541Z,48.80
2019-03-30T12:22:11.690Z,48.80
2019-03-30T12:24:40.791Z,48.90
2019-03-30T12:27:09.870Z,48.90
2019-03-30T12:29:38.988Z,48.80
2019-03-30T12:32:09.042Z,48.90
2019-03-30T12:34:38.126Z,48.80
2019-03-30T12:37:07.221Z,48.90
2019-03-30T12:39:36.313Z,49.00
2019-03-30T12:42:05.479Z,49.00
2019-03-30T12:44:34.792Z,48.90
2019-03-30T12:47:03.898Z,49.00
2019-03-30T12:49:33.230Z,48.90
2019-03-30T12:52:02.337Z,48.80
2019-03-30T12:54:31.422Z,48.80
2019-03-30T12:57:00.759Z,48.80
2019-03-30T12:59:30.126Z,48.80
2019-03-30T13:01:59.210Z,48.80
2019-03-30T13:04:28.314Z,48.70
2019-03-30T13:06:58.226Z,48.70
2019-03-30T13:09:27.327Z,48.60
2019-03-30T13:11:56.409Z,48.70
2019-03-30T13:14:25.754Z,48.70
2019-03-30T13:16:54.866Z,48.70
2019-03-30T13:19:23.998Z,48.80
2019-03-30T13:21:53.464Z,48.80
2019-03-30T13:24:22.563Z,48.80
2019-03-30T13:26:51.661Z,48.70
2019-03-30T13:29:20.747Z,48.70
2019-03-30T13:31:49.930Z,48.80
2019-03-30T13:34:19.022Z,48.80
2019-03-30T13:36:48.158Z,48.70
2019-03-30T13:39:17.241Z,48.80
2019-03-30T13:41:46.417Z,48.70
2019-03-30T13:44:15.518Z,48.80
2019-03-30T13:46:44.607Z,48.70
2019-03-30T13:49:13.710Z,48.70
2019-03-30T13:51:43.050Z,48.70
2019-03-30T13:54:12.141Z,48.80
2019-03-30T13:56:41.488Z,48.80
2019-03-30T13:59:10.863Z,48.80
2019-03-30T14:01:40.011Z,48.80
2019-03-30T14:04:09.103Z,48.80
2019-03-30T14:06:38.188Z,48.80
2019-03-30T14:09:07.780Z,48.80
2019-03-30T14:11:37.195Z,48.70
2019-03-30T14:14:06.282Z,48.80
2019-03-30T14:16:35.652Z,48.80
2019-03-30T14:19:04.750Z,48.90
2019-03-30T14:21:33.846Z,48.80
2019-03-30T14:24:02.927Z,48.90
2019-03-30T14:26:32.064Z,48.80
2019-03-30T14:29:01.490Z,48.80
2019-03-30T14:31:30.586Z,48.80
2019-03-30T14:33:59.669Z,48.80
2019-03-30T14:36:29.030Z,48.70
2019-03-30T14:38:58.119Z,48.80
2019-03-30T14:41:27.197Z,48.80
2019-03-30T14:43:56.306Z,48.70
2019-03-30T14:46:25.399Z,48.90
2019-03-30T14:48:54.742Z,48.80
2019-03-30T14:51:23.826Z,48.80
2019-03-30T14:53:52.925Z,48.90
2019-03-30T14:56:22.002Z,48.90
2019-03-30T14:58:51.108Z,48.80
2019-03-30T15:01:20.523Z,48.80
2019-03-30T15:03:49.610Z,48.80
2019-03-30T15:06:18.741Z,48.80
2019-03-30T15:08:47.818Z,48.90
2019-03-30T15:11:16.909Z,48.80
2019-03-30T15:13:45.994Z,48.80
2019-03-30T15:16:15.135Z,48.70
2019-03-30T15:18:44.221Z,48.70
2019-03-30T15:21:13.336Z,48.80
2019-03-30T15:23:42.416Z,48.80
2019-03-30T15:26:11.494Z,48.70
2019-03-30T15:28:42.792Z,48.80
2019-03-30T15:31:11.668Z,48.90
2019-03-30T15:33:40.783Z,48.80
2019-03-30T15:36:09.870Z,48.80
2019-03-30T15:38:38.949Z,48.90
2019-03-30T15:41:08.050Z,48.80
2019-03-30T15:43:38.611Z,48.80
2019-03-30T15:46:08.005Z,48.80
2019-03-30T15:48:37.094Z,48.70
2019-03-30T15:51:06.433Z,48.70
2019-03-30T15:53:35.542Z,48.70
2019-03-30T15:56:04.823Z,48.70
2019-03-30T15:58:33.924Z,48.80
2019-03-30T16:01:03.029Z,48.70
2019-03-30T16:03:32.113Z,48.70
2019-03-30T16:06:01.221Z,48.70
2019-03-30T16:08:30.314Z,48.70
2019-03-30T16:10:59.408Z,48.70
2019-03-30T16:13:28.487Z,48.80
2019-03-30T16:15:57.607Z,48.80
2019-03-30T16:18:26.695Z,48.70
2019-03-30T16:20:55.781Z,48.80
2019-03-30T16:23:25.138Z,48.80
2019-03-30T16:25:54.222Z,48.80
2019-03-30T16:28:23.580Z,48.80
2019-03-30T16:33:21.646Z,48.80
2019-03-30T16:35:50.729Z,48.80
2019-03-30T16:38:19.901Z,48.80
2019-03-30T16:40:49.234Z,48.80
2019-03-30T16:43:18.322Z,48.80
2019-03-30T16:45:47.424Z,48.80
2019-03-30T16:48:16.505Z,48.70
2019-03-30T16:50:45.606Z,48.80
2019-03-30T16:53:14.678Z,48.80
2019-03-30T16:55:43.774Z,48.80
2019-03-30T16:58:12.864Z,48.90
2019-03-30T17:00:55.833Z,48.90
2019-03-30T17:03:12.892Z,48.80
2019-03-30T17:05:42.008Z,48.90
2019-03-30T17:08:11.789Z,48.90
2019-03-30T17:10:41.123Z,48.90
2019-03-30T17:13:10.205Z,48.90
2019-03-30T17:15:39.309Z,48.90
2019-03-30T17:18:08.398Z,48.90
2019-03-30T17:20:37.502Z,48.90
2019-03-30T17:23:06.586Z,48.90
2019-03-30T17:25:35.942Z,49.00
2019-03-30T17:28:06.845Z,49.00
2019-03-30T17:30:35.833Z,49.10
2019-03-30T17:33:05.146Z,49.10
2019-03-30T17:35:34.318Z,49.10
2019-03-30T17:38:03.395Z,49.20
2019-03-30T17:40:32.503Z,49.10
2019-03-30T17:43:01.837Z,49.20
2019-03-30T17:45:30.925Z,49.30
2019-03-30T17:48:00.005Z,49.20
2019-03-30T17:50:29.126Z,49.20
2019-03-30T17:52:58.200Z,49.20
2019-03-30T17:55:33.719Z,49.20
2019-03-30T17:58:12.260Z,49.10
2019-03-30T18:00:29.260Z,49.10
2019-03-30T18:02:58.598Z,49.20
2019-03-30T18:05:27.939Z,49.20
2019-03-30T18:07:57.045Z,49.20
2019-03-30T18:10:26.137Z,49.20
2019-03-30T18:12:55.263Z,49.20
2019-03-30T18:15:24.353Z,49.20
2019-03-30T18:17:56.458Z,49.20
2019-03-30T18:20:24.285Z,49.30
2019-03-30T18:22:53.640Z,49.30
2019-03-30T18:25:22.777Z,49.30
2019-03-30T18:27:51.853Z,49.30
2019-03-30T18:30:34.904Z,49.40
2019-03-30T18:33:03.986Z,49.40
2019-03-30T18:35:33.321Z,49.40
2019-03-30T18:38:02.833Z,49.30
2019-03-30T18:40:32.572Z,49.30
2019-03-30T18:43:02.314Z,49.30
2019-03-30T18:45:31.403Z,49.40
2019-03-30T18:48:11.721Z,49.40
2019-03-30T18:50:40.946Z,49.50
2019-03-30T18:53:10.378Z,49.40
2019-03-30T18:55:39.481Z,49.20
2019-03-30T18:58:08.570Z,49.20
2019-03-30T19:00:37.665Z,49.20
2019-03-30T19:03:06.814Z,49.40
2019-03-30T19:05:35.925Z,49.30
2019-03-30T19:08:05.086Z,49.20
2019-03-30T19:10:34.198Z,49.10
2019-03-30T19:13:03.550Z,49.10
2019-03-30T19:15:32.630Z,49.20
2019-03-30T19:18:01.725Z,49.40
2019-03-30T19:20:30.815Z,49.40
2019-03-30T19:22:59.990Z,49.30
2019-03-30T19:25:29.855Z,49.40
2019-03-30T19:27:59.114Z,49.50
2019-03-30T19:30:28.198Z,49.40
2019-03-30T19:32:57.582Z,49.30
2019-03-30T19:35:26.741Z,49.50
2019-03-30T19:37:55.834Z,49.30
2019-03-30T19:40:24.913Z,49.50
2019-03-30T19:42:54.254Z,49.50
2019-03-30T19:45:23.337Z,49.40
2019-03-30T19:47:52.790Z,49.50
2019-03-30T19:50:22.193Z,49.50
2019-03-30T19:52:51.554Z,49.40
2019-03-30T19:55:20.926Z,49.40
2019-03-30T19:57:50.026Z,49.50
2019-03-30T20:00:19.174Z,49.40
2019-03-30T20:02:48.250Z,49.40
2019-03-30T20:05:17.337Z,49.40
2019-03-30T20:07:46.613Z,49.60
2019-03-30T20:10:15.970Z,49.80
2019-03-30T20:12:45.057Z,49.70
2019-03-30T20:15:14.193Z,49.70
2019-03-30T20:17:43.280Z,49.70
2019-03-30T20:20:12.450Z,49.60
2019-03-30T20:22:41.793Z,49.60
2019-03-30T20:25:10.898Z,49.60
2019-03-30T20:27:40.017Z,49.50
2019-03-30T20:30:09.892Z,49.50
2019-03-30T20:32:43.062Z,49.50
2019-03-30T20:35:10.543Z,49.60
2019-03-30T20:37:39.653Z,49.60
2019-03-30T20:40:08.735Z,49.60
2019-03-30T20:42:37.833Z,49.70
2019-03-30T20:45:07.162Z,49.70
2019-03-30T20:47:36.270Z,49.80
2019-03-30T20:50:06.212Z,49.60
2019-03-30T20:52:35.332Z,49.60
2019-03-30T20:55:04.734Z,49.60
2019-03-30T20:57:33.812Z,49.50
2019-03-30T21:00:03.207Z,49.50
2019-03-30T21:02:32.514Z,49.60
2019-03-30T21:05:01.628Z,49.40
2019-03-30T21:07:30.702Z,49.50
2019-03-30T21:09:59.817Z,49.60
2019-03-30T21:12:28.898Z,49.50
2019-03-30T21:14:57.998Z,49.50
2019-03-30T21:17:27.086Z,49.60
2019-03-30T21:19:56.200Z,49.80
2019-03-30T21:22:25.346Z,49.80
2019-03-30T21:24:54.459Z,49.90
2019-03-30T21:27:23.533Z,49.70
2019-03-30T21:29:54.723Z,49.80
2019-03-30T21:32:23.726Z,49.60
2019-03-30T21:34:52.809Z,49.60
2019-03-30T21:37:21.919Z,49.60
2019-03-30T21:39:51.082Z,49.80
2019-03-30T21:42:20.178Z,49.60
2019-03-30T21:44:49.524Z,49.60
2019-03-30T21:47:18.862Z,49.70
2019-03-30T21:49:47.951Z,49.60
2019-03-30T21:52:17.117Z,49.70
2019-03-30T21:54:46.193Z,50.20
2019-03-30T21:57:15.557Z,49.70
2019-03-30T21:59:44.628Z,49.70
2019-03-30T22:02:14.179Z,49.80
2019-03-30T22:04:43.282Z,49.70
2019-03-30T22:07:12.374Z,49.70
2019-03-30T22:09:41.489Z,49.70
2019-03-30T22:12:10.649Z,49.60
2019-03-30T22:14:39.733Z,49.50
2019-03-30T22:17:09.082Z,49.60
2019-03-30T22:19:38.425Z,49.70
2019-03-30T22:22:07.502Z,49.70
2019-03-30T22:24:36.689Z,49.70
2019-03-30T22:27:05.765Z,49.70
2019-03-30T22:29:34.886Z,49.80
2019-03-30T22:32:04.042Z,50.00
2019-03-30T22:34:33.130Z,49.90
2019-03-30T22:37:02.216Z,50.00
2019-03-30T22:39:31.289Z,50.00
2019-03-30T22:42:00.393Z,50.00
2019-03-30T22:44:29.478Z,49.90
2019-03-30T22:46:58.818Z,50.40
2019-03-30T22:49:27.897Z,49.90
2019-03-30T22:51:56.985Z,50.00
2019-03-30T22:54:26.136Z,50.10
2019-03-30T22:56:55.709Z,50.00
2019-03-30T22:59:24.887Z,50.00
2019-03-30T23:01:53.982Z,50.00
2019-03-30T23:04:23.050Z,49.70
2019-03-30T23:06:52.155Z,49.90
2019-03-30T23:09:21.229Z,49.90
2019-03-30T23:11:50.347Z,49.80
2019-03-30T23:14:19.433Z,49.70
2019-03-30T23:16:48.761Z,49.90
2019-03-30T23:19:17.939Z,49.90
2019-03-30T23:21:47.271Z,50.00
2019-03-30T23:24:16.625Z,49.80
2019-03-30T23:26:45.733Z,49.80
2019-03-30T23:29:14.899Z,49.80
2019-03-30T23:31:43.981Z,49.80
2019-03-30T23:34:13.322Z,49.70
2019-03-30T23:36:42.415Z,49.80
2019-03-30T23:39:11.511Z,50.00
2019-03-30T23:41:40.619Z,49.90
2019-03-30T23:44:09.702Z,50.00
2019-03-30T23:46:38.787Z,50.10
2019-03-30T23:49:07.862Z,50.10
2019-03-30T23:51:36.954Z,49.90
2019-03-30T23:54:06.309Z,49.70
2019-03-30T23:56:35.410Z,49.70
2019-03-30T23:59:04.497Z,49.90
